sensor_id;sensor_type;location;lat;lon;timestamp;P1;durP1;ratioP1;P2;durP2;ratioP2
39078;SDS011;24829;49.208;12.080;2024-03-07T00:00:14;56.55;;;29.67;;
39078;SDS011;24829;49.208;12.080;2024-03-07T00:02:42;49.08;;;29.50;;
39078;SDS011;24829;49.208;12.080;2024-03-07T00:05:13;51.72;;;31.20;;
39078;SDS011;24829;49.208;12.080;2024-03-07T00:07:39;53.78;;;27.13;;
39078;SDS011;24829;49.208;12.080;2024-03-07T00:10:06;57.47;;;30.60;;
39078;SDS011;24829;49.208;12.080;2024-03-07T00:12:38;50.95;;;28.08;;
39078;SDS011;24829;49.208;12.080;2024-03-07T00:15:07;56.25;;;30.90;;
39078;SDS011;24829;49.208;12.080;2024-03-07T00:17:34;50.92;;;27.95;;
39078;SDS011;24829;49.208;12.080;2024-03-07T00:20:00;50.20;;;29.58;;
39078;SDS011;24829;49.208;12.080;2024-03-07T00:22:27;52.33;;;26.77;;
39078;SDS011;24829;49.208;12.080;2024-03-07T00:24:55;50.80;;;28.45;;
39078;SDS011;24829;49.208;12.080;2024-03-07T00:27:21;53.30;;;29.63;;
39078;SDS011;24829;49.208;12.080;2024-03-07T00:29:48;51.78;;;27.15;;
39078;SDS011;24829;49.208;12.080;2024-03-07T00:32:18;51.30;;;28.05;;
39078;SDS011;24829;49.208;12.080;2024-03-07T00:34:48;53.30;;;29.70;;
39078;SDS011;24829;49.208;12.080;2024-03-07T00:37:15;55.95;;;31.30;;
39078;SDS011;24829;49.208;12.080;2024-03-07T00:39:41;56.13;;;30.38;;
39078;SDS011;24829;49.208;12.080;2024-03-07T00:42:07;56.08;;;32.80;;
39078;SDS011;24829;49.208;12.080;2024-03-07T00:44:33;57.55;;;32.20;;
39078;SDS011;24829;49.208;12.080;2024-03-07T00:46:59;60.03;;;30.70;;
39078;SDS011;24829;49.208;12.080;2024-03-07T00:49:25;59.97;;;32.50;;
39078;SDS011;24829;49.208;12.080;2024-03-07T00:51:53;55.22;;;31.02;;
39078;SDS011;24829;49.208;12.080;2024-03-07T00:54:19;59.10;;;30.90;;
39078;SDS011;24829;49.208;12.080;2024-03-07T00:56:45;56.03;;;31.75;;
39078;SDS011;24829;49.208;12.080;2024-03-07T00:59:14;56.45;;;31.90;;
39078;SDS011;24829;49.208;12.080;2024-03-07T01:01:42;60.28;;;31.35;;
39078;SDS011;24829;49.208;12.080;2024-03-07T01:04:08;60.85;;;32.47;;
39078;SDS011;24829;49.208;12.080;2024-03-07T01:06:34;63.50;;;34.90;;
39078;SDS011;24829;49.208;12.080;2024-03-07T01:09:01;63.47;;;31.63;;
39078;SDS011;24829;49.208;12.080;2024-03-07T01:11:27;59.40;;;32.47;;
39078;SDS011;24829;49.208;12.080;2024-03-07T01:13:53;59.85;;;31.95;;
39078;SDS011;24829;49.208;12.080;2024-03-07T01:16:19;64.43;;;32.47;;
39078;SDS011;24829;49.208;12.080;2024-03-07T01:18:45;61.92;;;35.45;;
39078;SDS011;24829;49.208;12.080;2024-03-07T01:21:10;58.97;;;33.40;;
39078;SDS011;24829;49.208;12.080;2024-03-07T01:23:36;61.63;;;34.58;;
39078;SDS011;24829;49.208;12.080;2024-03-07T01:26:02;67.82;;;34.30;;
39078;SDS011;24829;49.208;12.080;2024-03-07T01:28:28;66.25;;;34.63;;
39078;SDS011;24829;49.208;12.080;2024-03-07T01:30:56;56.28;;;33.30;;
39078;SDS011;24829;49.208;12.080;2024-03-07T01:33:23;58.13;;;29.52;;
39078;SDS011;24829;49.208;12.080;2024-03-07T01:35:49;58.22;;;32.83;;
39078;SDS011;24829;49.208;12.080;2024-03-07T01:38:15;57.47;;;32.72;;
39078;SDS011;24829;49.208;12.080;2024-03-07T01:40:41;57.83;;;33.10;;
39078;SDS011;24829;49.208;12.080;2024-03-07T01:43:07;61.13;;;31.40;;
39078;SDS011;24829;49.208;12.080;2024-03-07T01:45:33;66.28;;;36.17;;
39078;SDS011;24829;49.208;12.080;2024-03-07T01:48:01;60.05;;;33.58;;
39078;SDS011;24829;49.208;12.080;2024-03-07T01:50:27;64.15;;;33.83;;
39078;SDS011;24829;49.208;12.080;2024-03-07T01:52:53;60.30;;;32.35;;
39078;SDS011;24829;49.208;12.080;2024-03-07T01:55:21;67.15;;;37.40;;
39078;SDS011;24829;49.208;12.080;2024-03-07T01:57:47;64.80;;;36.15;;
39078;SDS011;24829;49.208;12.080;2024-03-07T02:00:13;62.88;;;37.05;;
39078;SDS011;24829;49.208;12.080;2024-03-07T02:02:39;62.42;;;36.10;;
39078;SDS011;24829;49.208;12.080;2024-03-07T02:05:05;64.43;;;34.50;;
39078;SDS011;24829;49.208;12.080;2024-03-07T02:07:31;63.42;;;34.97;;
39078;SDS011;24829;49.208;12.080;2024-03-07T02:10:00;62.80;;;35.15;;
39078;SDS011;24829;49.208;12.080;2024-03-07T02:12:29;63.10;;;35.92;;
39078;SDS011;24829;49.208;12.080;2024-03-07T02:14:58;63.70;;;33.78;;
39078;SDS011;24829;49.208;12.080;2024-03-07T02:17:27;65.22;;;34.60;;
39078;SDS011;24829;49.208;12.080;2024-03-07T02:19:52;61.55;;;33.10;;
39078;SDS011;24829;49.208;12.080;2024-03-07T02:22:18;62.00;;;33.53;;
39078;SDS011;24829;49.208;12.080;2024-03-07T02:24:44;65.10;;;34.63;;
39078;SDS011;24829;49.208;12.080;2024-03-07T02:27:10;70.40;;;33.90;;
39078;SDS011;24829;49.208;12.080;2024-03-07T02:29:37;65.25;;;34.70;;
39078;SDS011;24829;49.208;12.080;2024-03-07T02:32:02;61.25;;;33.35;;
39078;SDS011;24829;49.208;12.080;2024-03-07T02:34:28;68.15;;;36.55;;
39078;SDS011;24829;49.208;12.080;2024-03-07T02:36:54;61.20;;;34.90;;
39078;SDS011;24829;49.208;12.080;2024-03-07T02:39:20;67.13;;;35.45;;
39078;SDS011;24829;49.208;12.080;2024-03-07T02:41:46;62.28;;;33.30;;
39078;SDS011;24829;49.208;12.080;2024-03-07T02:44:15;58.20;;;31.30;;
39078;SDS011;24829;49.208;12.080;2024-03-07T02:46:40;67.40;;;37.05;;
39078;SDS011;24829;49.208;12.080;2024-03-07T02:49:06;64.78;;;35.47;;
39078;SDS011;24829;49.208;12.080;2024-03-07T02:51:32;73.63;;;39.20;;
39078;SDS011;24829;49.208;12.080;2024-03-07T02:53:58;60.40;;;32.92;;
39078;SDS011;24829;49.208;12.080;2024-03-07T02:56:24;61.50;;;33.15;;
39078;SDS011;24829;49.208;12.080;2024-03-07T02:58:52;70.15;;;33.75;;
39078;SDS011;24829;49.208;12.080;2024-03-07T03:01:18;69.07;;;32.58;;
39078;SDS011;24829;49.208;12.080;2024-03-07T03:03:44;63.47;;;33.47;;
39078;SDS011;24829;49.208;12.080;2024-03-07T03:06:10;57.28;;;29.83;;
39078;SDS011;24829;49.208;12.080;2024-03-07T03:08:36;60.38;;;31.95;;
39078;SDS011;24829;49.208;12.080;2024-03-07T03:11:02;60.40;;;30.48;;
39078;SDS011;24829;49.208;12.080;2024-03-07T03:13:28;65.47;;;31.75;;
39078;SDS011;24829;49.208;12.080;2024-03-07T03:15:54;61.08;;;33.22;;
39078;SDS011;24829;49.208;12.080;2024-03-07T03:18:23;62.85;;;33.30;;
39078;SDS011;24829;49.208;12.080;2024-03-07T03:20:49;60.35;;;32.15;;
39078;SDS011;24829;49.208;12.080;2024-03-07T03:23:15;61.80;;;32.00;;
39078;SDS011;24829;49.208;12.080;2024-03-07T03:25:41;66.15;;;34.58;;
39078;SDS011;24829;49.208;12.080;2024-03-07T03:28:08;61.95;;;34.53;;
39078;SDS011;24829;49.208;12.080;2024-03-07T03:30:37;64.50;;;32.30;;
39078;SDS011;24829;49.208;12.080;2024-03-07T03:33:06;61.92;;;30.45;;
39078;SDS011;24829;49.208;12.080;2024-03-07T03:35:33;54.20;;;31.50;;
39078;SDS011;24829;49.208;12.080;2024-03-07T03:37:59;55.95;;;30.00;;
39078;SDS011;24829;49.208;12.080;2024-03-07T03:40:25;63.10;;;33.58;;
39078;SDS011;24829;49.208;12.080;2024-03-07T03:42:51;63.42;;;32.95;;
39078;SDS011;24829;49.208;12.080;2024-03-07T03:45:17;57.90;;;31.20;;
39078;SDS011;24829;49.208;12.080;2024-03-07T03:47:43;61.47;;;30.42;;
39078;SDS011;24829;49.208;12.080;2024-03-07T03:50:09;66.72;;;34.15;;
39078;SDS011;24829;49.208;12.080;2024-03-07T03:52:36;60.72;;;31.52;;
39078;SDS011;24829;49.208;12.080;2024-03-07T03:55:05;57.60;;;31.73;;
39078;SDS011;24829;49.208;12.080;2024-03-07T03:57:32;61.58;;;34.17;;
39078;SDS011;24829;49.208;12.080;2024-03-07T03:59:58;61.80;;;33.17;;
39078;SDS011;24829;49.208;12.080;2024-03-07T04:02:24;64.10;;;30.80;;
39078;SDS011;24829;49.208;12.080;2024-03-07T04:04:50;52.45;;;28.40;;
39078;SDS011;24829;49.208;12.080;2024-03-07T04:07:17;61.22;;;32.78;;
39078;SDS011;24829;49.208;12.080;2024-03-07T04:09:46;57.47;;;31.83;;
39078;SDS011;24829;49.208;12.080;2024-03-07T04:12:13;57.50;;;30.15;;
39078;SDS011;24829;49.208;12.080;2024-03-07T04:14:40;61.28;;;34.65;;
39078;SDS011;24829;49.208;12.080;2024-03-07T04:17:07;59.45;;;32.20;;
39078;SDS011;24829;49.208;12.080;2024-03-07T04:19:36;65.40;;;31.35;;
39078;SDS011;24829;49.208;12.080;2024-03-07T04:22:03;58.13;;;30.90;;
39078;SDS011;24829;49.208;12.080;2024-03-07T04:24:32;53.60;;;30.38;;
39078;SDS011;24829;49.208;12.080;2024-03-07T04:26:58;63.15;;;29.92;;
39078;SDS011;24829;49.208;12.080;2024-03-07T04:29:25;65.55;;;30.88;;
39078;SDS011;24829;49.208;12.080;2024-03-07T04:31:51;61.20;;;32.38;;
39078;SDS011;24829;49.208;12.080;2024-03-07T04:34:17;54.85;;;28.92;;
39078;SDS011;24829;49.208;12.080;2024-03-07T04:36:43;61.25;;;31.27;;
39078;SDS011;24829;49.208;12.080;2024-03-07T04:39:09;60.33;;;31.58;;
39078;SDS011;24829;49.208;12.080;2024-03-07T04:41:47;62.15;;;32.20;;
39078;SDS011;24829;49.208;12.080;2024-03-07T04:44:13;60.30;;;32.97;;
39078;SDS011;24829;49.208;12.080;2024-03-07T04:46:39;57.35;;;31.85;;
39078;SDS011;24829;49.208;12.080;2024-03-07T04:49:07;61.20;;;30.92;;
39078;SDS011;24829;49.208;12.080;2024-03-07T04:51:34;57.95;;;31.25;;
39078;SDS011;24829;49.208;12.080;2024-03-07T04:53:59;61.33;;;31.20;;
39078;SDS011;24829;49.208;12.080;2024-03-07T04:56:25;61.13;;;31.40;;
39078;SDS011;24829;49.208;12.080;2024-03-07T04:58:50;61.70;;;31.98;;
39078;SDS011;24829;49.208;12.080;2024-03-07T05:01:17;60.17;;;33.40;;
39078;SDS011;24829;49.208;12.080;2024-03-07T05:03:43;66.00;;;33.30;;
39078;SDS011;24829;49.208;12.080;2024-03-07T05:06:08;55.75;;;32.17;;
39078;SDS011;24829;49.208;12.080;2024-03-07T05:08:34;53.70;;;29.45;;
39078;SDS011;24829;49.208;12.080;2024-03-07T05:10:59;57.13;;;30.73;;
39078;SDS011;24829;49.208;12.080;2024-03-07T05:13:25;63.17;;;30.77;;
39078;SDS011;24829;49.208;12.080;2024-03-07T05:15:51;60.35;;;30.52;;
39078;SDS011;24829;49.208;12.080;2024-03-07T05:18:18;74.80;;;42.35;;
39078;SDS011;24829;49.208;12.080;2024-03-07T05:20:43;69.60;;;37.58;;
39078;SDS011;24829;49.208;12.080;2024-03-07T05:23:09;69.13;;;36.58;;
39078;SDS011;24829;49.208;12.080;2024-03-07T05:25:35;62.30;;;31.55;;
39078;SDS011;24829;49.208;12.080;2024-03-07T05:28:01;55.53;;;30.83;;
39078;SDS011;24829;49.208;12.080;2024-03-07T05:30:27;58.22;;;29.95;;
39078;SDS011;24829;49.208;12.080;2024-03-07T05:32:54;63.10;;;30.25;;
39078;SDS011;24829;49.208;12.080;2024-03-07T05:35:20;59.33;;;28.90;;
39078;SDS011;24829;49.208;12.080;2024-03-07T05:37:46;57.63;;;31.00;;
39078;SDS011;24829;49.208;12.080;2024-03-07T05:40:12;65.03;;;33.22;;
39078;SDS011;24829;49.208;12.080;2024-03-07T05:42:38;60.47;;;32.15;;
39078;SDS011;24829;49.208;12.080;2024-03-07T05:45:03;59.20;;;31.38;;
39078;SDS011;24829;49.208;12.080;2024-03-07T05:47:33;54.67;;;28.85;;
39078;SDS011;24829;49.208;12.080;2024-03-07T05:49:59;56.38;;;30.02;;
39078;SDS011;24829;49.208;12.080;2024-03-07T05:52:24;56.75;;;31.08;;
39078;SDS011;24829;49.208;12.080;2024-03-07T05:54:50;56.72;;;28.90;;
39078;SDS011;24829;49.208;12.080;2024-03-07T05:57:15;61.15;;;30.27;;
39078;SDS011;24829;49.208;12.080;2024-03-07T05:59:41;57.10;;;30.88;;
39078;SDS011;24829;49.208;12.080;2024-03-07T06:02:07;58.47;;;32.00;;
39078;SDS011;24829;49.208;12.080;2024-03-07T06:04:32;50.08;;;25.90;;
39078;SDS011;24829;49.208;12.080;2024-03-07T06:06:59;53.95;;;30.27;;
39078;SDS011;24829;49.208;12.080;2024-03-07T06:09:24;56.20;;;30.85;;
39078;SDS011;24829;49.208;12.080;2024-03-07T06:11:51;58.60;;;31.38;;
39078;SDS011;24829;49.208;12.080;2024-03-07T06:14:17;57.30;;;31.00;;
39078;SDS011;24829;49.208;12.080;2024-03-07T06:16:43;59.42;;;30.52;;
39078;SDS011;24829;49.208;12.080;2024-03-07T06:19:09;53.72;;;29.13;;
39078;SDS011;24829;49.208;12.080;2024-03-07T06:21:35;57.05;;;28.77;;
39078;SDS011;24829;49.208;12.080;2024-03-07T06:24:02;55.70;;;29.17;;
39078;SDS011;24829;49.208;12.080;2024-03-07T06:26:29;58.13;;;31.02;;
39078;SDS011;24829;49.208;12.080;2024-03-07T06:29:16;59.13;;;30.45;;
39078;SDS011;24829;49.208;12.080;2024-03-07T06:31:43;53.90;;;29.63;;
39078;SDS011;24829;49.208;12.080;2024-03-07T06:34:11;59.45;;;29.75;;
39078;SDS011;24829;49.208;12.080;2024-03-07T06:36:38;60.45;;;32.20;;
39078;SDS011;24829;49.208;12.080;2024-03-07T06:39:03;57.17;;;30.35;;
39078;SDS011;24829;49.208;12.080;2024-03-07T06:41:32;53.22;;;30.23;;
39078;SDS011;24829;49.208;12.080;2024-03-07T06:43:59;54.05;;;30.92;;
39078;SDS011;24829;49.208;12.080;2024-03-07T06:46:24;59.80;;;29.95;;
39078;SDS011;24829;49.208;12.080;2024-03-07T06:48:50;53.58;;;28.58;;
39078;SDS011;24829;49.208;12.080;2024-03-07T06:51:16;53.72;;;29.25;;
39078;SDS011;24829;49.208;12.080;2024-03-07T06:53:45;55.03;;;30.45;;
39078;SDS011;24829;49.208;12.080;2024-03-07T06:56:15;54.13;;;30.10;;
39078;SDS011;24829;49.208;12.080;2024-03-07T06:58:41;52.58;;;30.38;;
39078;SDS011;24829;49.208;12.080;2024-03-07T07:01:08;56.58;;;30.58;;
39078;SDS011;24829;49.208;12.080;2024-03-07T07:03:37;51.08;;;27.33;;
39078;SDS011;24829;49.208;12.080;2024-03-07T07:06:03;54.28;;;29.63;;
39078;SDS011;24829;49.208;12.080;2024-03-07T07:08:32;56.92;;;29.33;;
39078;SDS011;24829;49.208;12.080;2024-03-07T07:10:58;54.65;;;28.80;;
39078;SDS011;24829;49.208;12.080;2024-03-07T07:13:24;53.70;;;29.45;;
39078;SDS011;24829;49.208;12.080;2024-03-07T07:15:50;53.38;;;29.58;;
39078;SDS011;24829;49.208;12.080;2024-03-07T07:18:16;54.28;;;29.35;;
39078;SDS011;24829;49.208;12.080;2024-03-07T07:20:42;61.67;;;31.83;;
39078;SDS011;24829;49.208;12.080;2024-03-07T07:23:08;51.92;;;28.02;;
39078;SDS011;24829;49.208;12.080;2024-03-07T07:25:34;52.83;;;31.08;;
39078;SDS011;24829;49.208;12.080;2024-03-07T07:28:00;58.85;;;30.10;;
39078;SDS011;24829;49.208;12.080;2024-03-07T07:30:29;53.88;;;26.73;;
39078;SDS011;24829;49.208;12.080;2024-03-07T07:32:55;49.03;;;26.60;;
39078;SDS011;24829;49.208;12.080;2024-03-07T07:35:21;47.40;;;26.27;;
39078;SDS011;24829;49.208;12.080;2024-03-07T07:37:48;54.85;;;28.63;;
39078;SDS011;24829;49.208;12.080;2024-03-07T07:40:16;55.28;;;28.67;;
39078;SDS011;24829;49.208;12.080;2024-03-07T07:42:48;49.10;;;25.48;;
39078;SDS011;24829;49.208;12.080;2024-03-07T07:45:16;51.30;;;27.13;;
39078;SDS011;24829;49.208;12.080;2024-03-07T07:47:44;49.38;;;24.83;;
39078;SDS011;24829;49.208;12.080;2024-03-07T07:50:11;49.00;;;26.17;;
39078;SDS011;24829;49.208;12.080;2024-03-07T07:55:18;45.70;;;23.63;;
39078;SDS011;24829;49.208;12.080;2024-03-07T07:57:50;45.35;;;23.45;;
39078;SDS011;24829;49.208;12.080;2024-03-07T08:00:24;46.63;;;23.58;;
39078;SDS011;24829;49.208;12.080;2024-03-07T08:03:05;47.47;;;23.90;;
39078;SDS011;24829;49.208;12.080;2024-03-07T08:05:32;46.15;;;22.67;;
39078;SDS011;24829;49.208;12.080;2024-03-07T08:08:00;43.28;;;22.23;;
39078;SDS011;24829;49.208;12.080;2024-03-07T08:10:33;48.95;;;23.60;;
39078;SDS011;24829;49.208;12.080;2024-03-07T08:13:00;43.85;;;24.05;;
39078;SDS011;24829;49.208;12.080;2024-03-07T08:15:28;40.22;;;22.00;;
39078;SDS011;24829;49.208;12.080;2024-03-07T08:17:55;54.67;;;23.92;;
39078;SDS011;24829;49.208;12.080;2024-03-07T08:20:21;39.92;;;22.83;;
39078;SDS011;24829;49.208;12.080;2024-03-07T08:22:48;44.40;;;21.90;;
39078;SDS011;24829;49.208;12.080;2024-03-07T08:25:18;45.85;;;21.83;;
39078;SDS011;24829;49.208;12.080;2024-03-07T08:27:49;47.30;;;22.73;;
39078;SDS011;24829;49.208;12.080;2024-03-07T08:30:16;38.78;;;20.52;;
39078;SDS011;24829;49.208;12.080;2024-03-07T08:32:43;45.58;;;22.33;;
39078;SDS011;24829;49.208;12.080;2024-03-07T08:35:10;44.65;;;23.35;;
39078;SDS011;24829;49.208;12.080;2024-03-07T08:37:40;39.95;;;22.00;;
39078;SDS011;24829;49.208;12.080;2024-03-07T08:40:10;38.65;;;21.10;;
39078;SDS011;24829;49.208;12.080;2024-03-07T08:42:44;41.42;;;21.17;;
39078;SDS011;24829;49.208;12.080;2024-03-07T08:45:18;40.85;;;20.50;;
39078;SDS011;24829;49.208;12.080;2024-03-07T08:47:44;40.47;;;21.33;;
39078;SDS011;24829;49.208;12.080;2024-03-07T08:50:11;39.53;;;20.08;;
39078;SDS011;24829;49.208;12.080;2024-03-07T08:52:38;37.70;;;19.02;;
39078;SDS011;24829;49.208;12.080;2024-03-07T08:55:05;38.10;;;20.58;;
39078;SDS011;24829;49.208;12.080;2024-03-07T08:57:34;39.42;;;21.27;;
39078;SDS011;24829;49.208;12.080;2024-03-07T09:00:01;30.00;;;16.13;;
39078;SDS011;24829;49.208;12.080;2024-03-07T09:02:33;39.08;;;21.70;;
39078;SDS011;24829;49.208;12.080;2024-03-07T09:05:00;34.75;;;18.77;;
39078;SDS011;24829;49.208;12.080;2024-03-07T09:07:26;38.17;;;20.85;;
39078;SDS011;24829;49.208;12.080;2024-03-07T09:09:54;34.75;;;18.90;;
39078;SDS011;24829;49.208;12.080;2024-03-07T09:12:20;56.67;;;26.23;;
39078;SDS011;24829;49.208;12.080;2024-03-07T09:14:46;37.58;;;21.58;;
39078;SDS011;24829;49.208;12.080;2024-03-07T09:17:11;39.08;;;20.05;;
39078;SDS011;24829;49.208;12.080;2024-03-07T09:19:37;28.15;;;17.00;;
39078;SDS011;24829;49.208;12.080;2024-03-07T09:22:03;29.58;;;17.27;;
39078;SDS011;24829;49.208;12.080;2024-03-07T09:24:29;35.88;;;17.40;;
39078;SDS011;24829;49.208;12.080;2024-03-07T09:26:56;25.70;;;14.52;;
39078;SDS011;24829;49.208;12.080;2024-03-07T09:29:22;32.25;;;16.48;;
39078;SDS011;24829;49.208;12.080;2024-03-07T09:31:51;31.27;;;15.95;;
39078;SDS011;24829;49.208;12.080;2024-03-07T09:34:18;28.52;;;15.93;;
39078;SDS011;24829;49.208;12.080;2024-03-07T09:36:46;29.33;;;14.23;;
39078;SDS011;24829;49.208;12.080;2024-03-07T09:39:12;26.25;;;15.27;;
39078;SDS011;24829;49.208;12.080;2024-03-07T09:41:38;28.20;;;15.23;;
39078;SDS011;24829;49.208;12.080;2024-03-07T09:44:10;26.33;;;15.13;;
39078;SDS011;24829;49.208;12.080;2024-03-07T09:46:47;31.00;;;15.40;;
39078;SDS011;24829;49.208;12.080;2024-03-07T09:49:15;24.40;;;13.52;;
39078;SDS011;24829;49.208;12.080;2024-03-07T09:51:43;21.67;;;13.07;;
39078;SDS011;24829;49.208;12.080;2024-03-07T09:54:10;25.45;;;14.30;;
39078;SDS011;24829;49.208;12.080;2024-03-07T09:56:36;24.48;;;13.55;;
39078;SDS011;24829;49.208;12.080;2024-03-07T09:59:03;22.77;;;13.63;;
39078;SDS011;24829;49.208;12.080;2024-03-07T10:01:30;22.75;;;12.73;;
39078;SDS011;24829;49.208;12.080;2024-03-07T10:04:01;19.20;;;11.18;;
39078;SDS011;24829;49.208;12.080;2024-03-07T10:06:39;25.15;;;13.57;;
39078;SDS011;24829;49.208;12.080;2024-03-07T10:09:10;24.13;;;13.43;;
39078;SDS011;24829;49.208;12.080;2024-03-07T10:11:39;19.50;;;11.32;;
39078;SDS011;24829;49.208;12.080;2024-03-07T10:14:06;19.45;;;12.80;;
39078;SDS011;24829;49.208;12.080;2024-03-07T10:16:32;22.83;;;12.85;;
39078;SDS011;24829;49.208;12.080;2024-03-07T10:18:58;24.30;;;14.32;;
39078;SDS011;24829;49.208;12.080;2024-03-07T10:21:26;22.50;;;13.40;;
39078;SDS011;24829;49.208;12.080;2024-03-07T10:24:07;23.20;;;13.70;;
39078;SDS011;24829;49.208;12.080;2024-03-07T10:26:36;20.30;;;12.70;;
39078;SDS011;24829;49.208;12.080;2024-03-07T10:29:03;24.30;;;13.45;;
39078;SDS011;24829;49.208;12.080;2024-03-07T10:31:33;21.98;;;12.43;;
39078;SDS011;24829;49.208;12.080;2024-03-07T10:34:02;22.20;;;12.40;;
39078;SDS011;24829;49.208;12.080;2024-03-07T10:36:32;29.50;;;13.48;;
39078;SDS011;24829;49.208;12.080;2024-03-07T10:39:01;21.42;;;12.13;;
39078;SDS011;24829;49.208;12.080;2024-03-07T10:41:29;20.10;;;12.53;;
39078;SDS011;24829;49.208;12.080;2024-03-07T10:46:29;25.77;;;13.55;;
39078;SDS011;24829;49.208;12.080;2024-03-07T10:48:56;24.70;;;13.93;;
39078;SDS011;24829;49.208;12.080;2024-03-07T10:51:40;23.95;;;14.02;;
39078;SDS011;24829;49.208;12.080;2024-03-07T10:54:22;24.45;;;13.85;;
39078;SDS011;24829;49.208;12.080;2024-03-07T10:59:56;21.70;;;12.75;;
39078;SDS011;24829;49.208;12.080;2024-03-07T11:02:31;22.75;;;14.27;;
39078;SDS011;24829;49.208;12.080;2024-03-07T11:05:02;23.20;;;14.73;;
39078;SDS011;24829;49.208;12.080;2024-03-07T11:07:33;28.67;;;13.52;;
39078;SDS011;24829;49.208;12.080;2024-03-07T11:09:59;22.33;;;13.68;;
39078;SDS011;24829;49.208;12.080;2024-03-07T11:12:26;25.88;;;14.18;;
39078;SDS011;24829;49.208;12.080;2024-03-07T11:14:53;25.83;;;16.50;;
39078;SDS011;24829;49.208;12.080;2024-03-07T11:17:21;37.33;;;20.90;;
39078;SDS011;24829;49.208;12.080;2024-03-07T11:19:48;40.33;;;22.58;;
39078;SDS011;24829;49.208;12.080;2024-03-07T11:22:30;31.15;;;17.25;;
39078;SDS011;24829;49.208;12.080;2024-03-07T11:25:01;25.52;;;16.08;;
39078;SDS011;24829;49.208;12.080;2024-03-07T11:27:38;26.77;;;16.33;;
39078;SDS011;24829;49.208;12.080;2024-03-07T11:30:08;27.35;;;16.73;;
39078;SDS011;24829;49.208;12.080;2024-03-07T11:32:35;29.23;;;17.75;;
39078;SDS011;24829;49.208;12.080;2024-03-07T11:35:11;47.13;;;26.63;;
39078;SDS011;24829;49.208;12.080;2024-03-07T11:37:41;28.20;;;17.70;;
39078;SDS011;24829;49.208;12.080;2024-03-07T11:40:58;28.02;;;17.08;;
39078;SDS011;24829;49.208;12.080;2024-03-07T11:42:57;33.15;;;20.45;;
39078;SDS011;24829;49.208;12.080;2024-03-07T11:45:25;40.53;;;23.20;;
39078;SDS011;24829;49.208;12.080;2024-03-07T11:47:53;26.00;;;14.88;;
39078;SDS011;24829;49.208;12.080;2024-03-07T11:50:31;56.15;;;28.27;;
39078;SDS011;24829;49.208;12.080;2024-03-07T11:53:01;30.13;;;16.92;;
39078;SDS011;24829;49.208;12.080;2024-03-07T11:55:31;30.33;;;15.73;;
39078;SDS011;24829;49.208;12.080;2024-03-07T11:58:12;53.55;;;24.92;;
39078;SDS011;24829;49.208;12.080;2024-03-07T12:00:49;56.63;;;26.75;;
39078;SDS011;24829;49.208;12.080;2024-03-07T12:03:17;35.67;;;19.85;;
39078;SDS011;24829;49.208;12.080;2024-03-07T12:05:46;64.05;;;29.58;;
39078;SDS011;24829;49.208;12.080;2024-03-07T12:08:12;40.53;;;23.23;;
39078;SDS011;24829;49.208;12.080;2024-03-07T12:10:39;75.50;;;37.28;;
39078;SDS011;24829;49.208;12.080;2024-03-07T12:13:09;76.03;;;34.75;;
39078;SDS011;24829;49.208;12.080;2024-03-07T12:15:36;59.38;;;30.20;;
39078;SDS011;24829;49.208;12.080;2024-03-07T12:18:03;35.50;;;20.13;;
39078;SDS011;24829;49.208;12.080;2024-03-07T12:20:40;29.13;;;16.92;;
39078;SDS011;24829;49.208;12.080;2024-03-07T12:23:06;28.42;;;16.60;;
39078;SDS011;24829;49.208;12.080;2024-03-07T12:25:36;32.28;;;20.13;;
39078;SDS011;24829;49.208;12.080;2024-03-07T12:28:07;26.75;;;16.98;;
39078;SDS011;24829;49.208;12.080;2024-03-07T12:33:11;27.13;;;15.82;;
39078;SDS011;24829;49.208;12.080;2024-03-07T12:35:39;24.98;;;15.18;;
39078;SDS011;24829;49.208;12.080;2024-03-07T12:38:16;26.63;;;15.05;;
39078;SDS011;24829;49.208;12.080;2024-03-07T12:40:43;29.35;;;15.52;;
39078;SDS011;24829;49.208;12.080;2024-03-07T12:43:21;25.38;;;15.35;;
39078;SDS011;24829;49.208;12.080;2024-03-07T12:45:48;25.80;;;15.23;;
39078;SDS011;24829;49.208;12.080;2024-03-07T12:48:20;23.70;;;14.02;;
39078;SDS011;24829;49.208;12.080;2024-03-07T12:50:46;25.02;;;14.32;;
39078;SDS011;24829;49.208;12.080;2024-03-07T12:53:24;23.73;;;15.32;;
39078;SDS011;24829;49.208;12.080;2024-03-07T12:55:51;24.80;;;14.30;;
39078;SDS011;24829;49.208;12.080;2024-03-07T12:58:19;26.98;;;15.85;;
39078;SDS011;24829;49.208;12.080;2024-03-07T13:00:47;26.52;;;16.10;;
39078;SDS011;24829;49.208;12.080;2024-03-07T13:03:12;27.73;;;16.13;;
39078;SDS011;24829;49.208;12.080;2024-03-07T13:05:39;28.40;;;16.85;;
39078;SDS011;24829;49.208;12.080;2024-03-07T13:08:08;26.60;;;14.63;;
39078;SDS011;24829;49.208;12.080;2024-03-07T13:10:43;24.35;;;14.68;;
39078;SDS011;24829;49.208;12.080;2024-03-07T13:13:10;26.35;;;16.02;;
39078;SDS011;24829;49.208;12.080;2024-03-07T13:15:39;21.38;;;13.40;;
39078;SDS011;24829;49.208;12.080;2024-03-07T13:18:07;25.08;;;15.18;;
39078;SDS011;24829;49.208;12.080;2024-03-07T13:20:34;26.40;;;15.23;;
39078;SDS011;24829;49.208;12.080;2024-03-07T13:23:01;30.00;;;15.15;;
39078;SDS011;24829;49.208;12.080;2024-03-07T13:25:28;24.85;;;15.20;;
39078;SDS011;24829;49.208;12.080;2024-03-07T13:28:03;25.35;;;13.75;;
39078;SDS011;24829;49.208;12.080;2024-03-07T13:30:32;26.70;;;15.77;;
39078;SDS011;24829;49.208;12.080;2024-03-07T13:33:01;27.20;;;15.73;;
39078;SDS011;24829;49.208;12.080;2024-03-07T13:35:28;24.90;;;13.90;;
39078;SDS011;24829;49.208;12.080;2024-03-07T13:37:54;25.55;;;15.07;;
39078;SDS011;24829;49.208;12.080;2024-03-07T13:40:21;22.23;;;14.45;;
39078;SDS011;24829;49.208;12.080;2024-03-07T13:42:49;26.98;;;16.27;;
39078;SDS011;24829;49.208;12.080;2024-03-07T13:45:22;28.88;;;18.63;;
39078;SDS011;24829;49.208;12.080;2024-03-07T13:47:55;24.27;;;13.88;;
39078;SDS011;24829;49.208;12.080;2024-03-07T13:50:23;25.02;;;13.50;;
39078;SDS011;24829;49.208;12.080;2024-03-07T13:52:54;24.30;;;13.43;;
39078;SDS011;24829;49.208;12.080;2024-03-07T13:55:33;22.63;;;14.45;;
39078;SDS011;24829;49.208;12.080;2024-03-07T13:58:04;25.80;;;13.98;;
39078;SDS011;24829;49.208;12.080;2024-03-07T14:00:59;20.35;;;12.77;;
39078;SDS011;24829;49.208;12.080;2024-03-07T14:03:51;28.88;;;12.77;;
39078;SDS011;24829;49.208;12.080;2024-03-07T14:06:57;27.77;;;13.32;;
39078;SDS011;24829;49.208;12.080;2024-03-07T14:12:28;22.73;;;12.68;;
39078;SDS011;24829;49.208;12.080;2024-03-07T14:15:38;20.52;;;12.48;;
39078;SDS011;24829;49.208;12.080;2024-03-07T14:21:27;20.45;;;12.43;;
39078;SDS011;24829;49.208;12.080;2024-03-07T14:31:46;20.40;;;12.85;;
39078;SDS011;24829;49.208;12.080;2024-03-07T14:34:23;21.77;;;12.27;;
39078;SDS011;24829;49.208;12.080;2024-03-07T14:37:04;18.27;;;12.18;;
39078;SDS011;24829;49.208;12.080;2024-03-07T14:39:42;23.65;;;14.50;;